MSC Federica — HPQE — position and weather

sailwx.info

Track history (hours):
 
Tides and Currents Weather Stations Pressure Air Temp Water Temp Dewpoint Dewpoint Depression Visibility Wind Speed Wind Dir Waves Ship Positions

MSC Federica

Last reported at 2015-Feb-10 00:22 UTC. Time now 2015-Mar-02 07:20 UTC.
Position N 26°21' W 078°53'.
Warning: this ship's position is 20 days out of date.

Length 294 m; draft 9.3 m.

Type: Ship (hazmat cat B). MMSI: 357363000.

Date/timePositionNaut miles runAvg speedWind from/ knotsBaromVisibWave heightAir tempDewpointWater temp
2015-Feb-10 00:22N 26°21' W 078°53'1 0.7
2015-Feb-09 22:28N 26°22' W 078°51'7 1.8
2015-Feb-09 18:17N 26°18' W 078°59'2016.6
2015-Feb-09 17:04N 26°17' W 079°21'916.9
2015-Feb-09 16:33N 26°15' W 079°30'1717.4
2015-Feb-09 15:33N 26°10' W 079°49'1615.7
2015-Feb-09 14:33N 26°06' W 080°06'2 1.5
2015-Feb-09 13:24N 26°04' W 080°07'0 0.0
2015-Feb-09 12:30N 26°04' W 080°07'0 0.0
2015-Feb-09 11:33N 26°04' W 080°07'0 0.0
2015-Feb-09 10:33N 26°04' W 080°07'0 0.0
2015-Feb-09 09:33N 26°04' W 080°07'0 0.0
2015-Feb-09 08:33N 26°04' W 080°07'0 0.0
2015-Feb-09 07:33N 26°04' W 080°07'0 0.0
2015-Feb-09 06:33N 26°04' W 080°07'0 0.0
2015-Feb-09 05:33N 26°04' W 080°07'0 0.0
2015-Feb-09 04:24N 26°04' W 080°07'1 1.7
2015-Feb-09 03:33N 26°06' W 080°07'7 7.3
2015-Feb-09 02:33N 26°06' W 079°59'8 7.6
2015-Feb-09 01:33N 26°12' W 079°53'3 3.1
2015-Feb-09 00:33N 26°09' W 079°53'4 3.7
2015-Feb-08 23:33N 26°05' W 079°54'3 3.0
2015-Feb-08 22:33N 26°02' W 079°55'3 3.4
2015-Feb-08 21:33N 26°05' W 079°57'4 3.7
2015-Feb-08 20:33N 26°09' W 079°56'8 7.7
2015-Feb-08 19:33N 26°17' W 079°55'1313.1
2015-Feb-08 18:33N 26°30' W 079°54'1616.3
2015-Feb-08 17:33N 26°46' W 079°52'1716.5
2015-Feb-08 16:32N 27°03' W 079°51'34712.4
2015-Feb-07 12:32N 32°50' W 079°54'46410.1
2015-Feb-05 14:26N 38°57' W 074°05'1314.1
2015-Feb-05 13:32N 39°10' W 074°03'2120.8
2015-Feb-05 12:33N 39°30' W 073°57'11 8.6
2015-Feb-05 11:18N 39°40' W 073°54'0 0.3
2015-Feb-05 10:33N 39°40' W 073°54'1010.1
2015-Feb-05 09:33N 39°50' W 073°53'2914.1
2015-Feb-05 07:28N 40°19' W 073°49'8 8.9
2015-Feb-05 06:33N 40°27' W 073°51'1212.0
2015-Feb-05 05:34N 40°36' W 074°02'6 6.0
2015-Feb-05 04:33N 40°39' W 074°09'2 1.9
2015-Feb-05 03:31N 40°41' W 074°09'0 0.0
2015-Feb-05 02:31N 40°41' W 074°09'0 0.0
2015-Feb-05 01:31N 40°41' W 074°09'0 0.0
2015-Feb-05 00:31N 40°41' W 074°09'0 0.0
2015-Feb-04 23:31N 40°41' W 074°09'0 0.0
2015-Feb-04 22:31N 40°41' W 074°09'0 0.0
2015-Feb-04 21:28N 40°41' W 074°09'0 0.0
2015-Feb-04 20:31N 40°41' W 074°09'0 0.0
2015-Feb-04 19:31N 40°41' W 074°09'0 0.0
2015-Feb-04 18:31N 40°41' W 074°09'0 0.0
2015-Feb-04 17:25N 40°41' W 074°09'0 0.0
2015-Feb-04 16:31N 40°41' W 074°09'0 0.0
2015-Feb-04 15:31N 40°41' W 074°09'0 0.0
2015-Feb-04 14:31N 40°41' W 074°09'0 0.0
2015-Feb-04 13:31N 40°41' W 074°09'0 0.0
2015-Feb-04 12:31N 40°41' W 074°09'0 0.0
2015-Feb-04 11:31N 40°41' W 074°09'0 0.0
2015-Feb-04 10:31N 40°41' W 074°09'0 0.0
2015-Feb-04 09:31N 40°41' W 074°09'0 0.0
2015-Feb-04 08:28N 40°41' W 074°09'0 0.0
2015-Feb-04 07:28N 40°41' W 074°09'0 0.0
2015-Feb-04 06:31N 40°41' W 074°09'0 0.0
2015-Feb-04 05:31N 40°41' W 074°09'0 0.0
2015-Feb-04 04:31N 40°41' W 074°09'0 0.0
2015-Feb-04 03:31N 40°41' W 074°09'0 0.0
2015-Feb-04 02:31N 40°41' W 074°09'0 0.0
2015-Feb-04 01:31N 40°41' W 074°09'0 0.0
2015-Feb-04 00:25N 40°41' W 074°09'0 0.0
2015-Feb-03 23:31N 40°41' W 074°09'0 0.0
2015-Feb-03 22:31N 40°41' W 074°09'0 0.0
2015-Feb-03 21:31N 40°41' W 074°09'0 0.0
2015-Feb-03 20:31N 40°41' W 074°09'0 0.0
2015-Feb-03 19:28N 40°41' W 074°09'0 0.0
2015-Feb-03 18:25N 40°41' W 074°09'0 0.0
2015-Feb-03 17:28N 40°41' W 074°09'0 0.0
2015-Feb-03 16:28N 40°41' W 074°09'0 0.0
2015-Feb-03 15:28N 40°41' W 074°09'1 1.5
2015-Feb-03 14:33N 40°40' W 074°09'4 4.5
2015-Feb-03 13:33N 40°38' W 074°03'1211.8
2015-Feb-03 12:33N 40°29' W 073°53'34 8.4
2015-Feb-03 08:30N 39°56' W 073°44'1617.3
2015-Feb-03 07:33N 39°39' W 073°42'1717.0
2015-Feb-03 06:33N 39°23' W 073°48'  
Track history (hours):
 
Tides and Currents Weather Stations Pressure Air Temp Water Temp Dewpoint Dewpoint Depression Visibility Wind Speed Wind Dir Waves Ship Positions

MSC Federica

Last reported at 2015-Feb-10 00:22 UTC. Time now 2015-Mar-02 07:20 UTC.
Position N 26°21' W 078°53'.
Warning: this ship's position is 20 days out of date.

Length 294 m; draft 9.3 m.

Type: Ship (hazmat cat B). MMSI: 357363000.

Date/timePositionNaut miles runAvg speedWind from/ knotsBaromVisibWave heightAir tempDewpointWater temp
2015-Feb-10 00:22N 26°21' W 078°53'1 0.7
2015-Feb-09 22:28N 26°22' W 078°51'7 1.8
2015-Feb-09 18:17N 26°18' W 078°59'2016.6
2015-Feb-09 17:04N 26°17' W 079°21'916.9
2015-Feb-09 16:33N 26°15' W 079°30'1717.4
2015-Feb-09 15:33N 26°10' W 079°49'1615.7
2015-Feb-09 14:33N 26°06' W 080°06'2 1.5
2015-Feb-09 13:24N 26°04' W 080°07'0 0.0
2015-Feb-09 12:30N 26°04' W 080°07'0 0.0
2015-Feb-09 11:33N 26°04' W 080°07'0 0.0
2015-Feb-09 10:33N 26°04' W 080°07'0 0.0
2015-Feb-09 09:33N 26°04' W 080°07'0 0.0
2015-Feb-09 08:33N 26°04' W 080°07'0 0.0
2015-Feb-09 07:33N 26°04' W 080°07'0 0.0
2015-Feb-09 06:33N 26°04' W 080°07'0 0.0
2015-Feb-09 05:33N 26°04' W 080°07'0 0.0
2015-Feb-09 04:24N 26°04' W 080°07'1 1.7
2015-Feb-09 03:33N 26°06' W 080°07'7 7.3
2015-Feb-09 02:33N 26°06' W 079°59'8 7.6
2015-Feb-09 01:33N 26°12' W 079°53'3 3.1
2015-Feb-09 00:33N 26°09' W 079°53'4 3.7
2015-Feb-08 23:33N 26°05' W 079°54'3 3.0
2015-Feb-08 22:33N 26°02' W 079°55'3 3.4
2015-Feb-08 21:33N 26°05' W 079°57'4 3.7
2015-Feb-08 20:33N 26°09' W 079°56'8 7.7
2015-Feb-08 19:33N 26°17' W 079°55'1313.1
2015-Feb-08 18:33N 26°30' W 079°54'1616.3
2015-Feb-08 17:33N 26°46' W 079°52'1716.5
2015-Feb-08 16:32N 27°03' W 079°51'34712.4
2015-Feb-07 12:32N 32°50' W 079°54'46410.1
2015-Feb-05 14:26N 38°57' W 074°05'1314.1
2015-Feb-05 13:32N 39°10' W 074°03'2120.8
2015-Feb-05 12:33N 39°30' W 073°57'11 8.6
2015-Feb-05 11:18N 39°40' W 073°54'0 0.3
2015-Feb-05 10:33N 39°40' W 073°54'1010.1
2015-Feb-05 09:33N 39°50' W 073°53'2914.1
2015-Feb-05 07:28N 40°19' W 073°49'8 8.9
2015-Feb-05 06:33N 40°27' W 073°51'1212.0
2015-Feb-05 05:34N 40°36' W 074°02'6 6.0
2015-Feb-05 04:33N 40°39' W 074°09'2 1.9
2015-Feb-05 03:31N 40°41' W 074°09'0 0.0
2015-Feb-05 02:31N 40°41' W 074°09'0 0.0
2015-Feb-05 01:31N 40°41' W 074°09'0 0.0
2015-Feb-05 00:31N 40°41' W 074°09'0 0.0
2015-Feb-04 23:31N 40°41' W 074°09'0 0.0
2015-Feb-04 22:31N 40°41' W 074°09'0 0.0
2015-Feb-04 21:28N 40°41' W 074°09'0 0.0
2015-Feb-04 20:31N 40°41' W 074°09'0 0.0
2015-Feb-04 19:31N 40°41' W 074°09'0 0.0
2015-Feb-04 18:31N 40°41' W 074°09'0 0.0
2015-Feb-04 17:25N 40°41' W 074°09'0 0.0
2015-Feb-04 16:31N 40°41' W 074°09'0 0.0
2015-Feb-04 15:31N 40°41' W 074°09'0 0.0
2015-Feb-04 14:31N 40°41' W 074°09'0 0.0
2015-Feb-04 13:31N 40°41' W 074°09'0 0.0
2015-Feb-04 12:31N 40°41' W 074°09'0 0.0
2015-Feb-04 11:31N 40°41' W 074°09'0 0.0
2015-Feb-04 10:31N 40°41' W 074°09'0 0.0
2015-Feb-04 09:31N 40°41' W 074°09'0 0.0
2015-Feb-04 08:28N 40°41' W 074°09'0 0.0
2015-Feb-04 07:28N 40°41' W 074°09'0 0.0
2015-Feb-04 06:31N 40°41' W 074°09'0 0.0
2015-Feb-04 05:31N 40°41' W 074°09'0 0.0
2015-Feb-04 04:31N 40°41' W 074°09'0 0.0
2015-Feb-04 03:31N 40°41' W 074°09'0 0.0
2015-Feb-04 02:31N 40°41' W 074°09'0 0.0
2015-Feb-04 01:31N 40°41' W 074°09'0 0.0
2015-Feb-04 00:25N 40°41' W 074°09'0 0.0
2015-Feb-03 23:31N 40°41' W 074°09'0 0.0
2015-Feb-03 22:31N 40°41' W 074°09'0 0.0
2015-Feb-03 21:31N 40°41' W 074°09'0 0.0
2015-Feb-03 20:31N 40°41' W 074°09'0 0.0
2015-Feb-03 19:28N 40°41' W 074°09'0 0.0
2015-Feb-03 18:25N 40°41' W 074°09'0 0.0
2015-Feb-03 17:28N 40°41' W 074°09'0 0.0
2015-Feb-03 16:28N 40°41' W 074°09'0 0.0
2015-Feb-03 15:28N 40°41' W 074°09'1 1.5
2015-Feb-03 14:33N 40°40' W 074°09'4 4.5
2015-Feb-03 13:33N 40°38' W 074°03'1211.8
2015-Feb-03 12:33N 40°29' W 073°53'34 8.4
2015-Feb-03 08:30N 39°56' W 073°44'1617.3
2015-Feb-03 07:33N 39°39' W 073°42'1717.0
2015-Feb-03 06:33N 39°23' W 073°48'  

Dump ship's entire track history